Nearby METAR Reports

 

LBSF - Sofia (observato, Bulgaria
Distance from station: ENE 64km
Updated: 17/10/2017 14:00
Clear
Clear
 Wind from varies
Wind: varies 6 km/h
Temperature: 20°C
Dew Point: 8°C
Humidity: 46%
Barometer: 1028 hPa
Summary: Clear
Visibility: greater than 10 km
2017/10/17 11:00 LBSF 171100Z VRB03KT CAVOK 20/08 Q1028 NOSIG
LWSK - Skopje/Petrovac, Macedonia
Distance from station: WSW 99km
Updated: 17/10/2017 14:00
Clear
Clear
 Wind from varies
Wind: varies 4 km/h
Temperature: 22°C
Dew Point: 9°C
Humidity: 44%
Barometer: 1027 hPa
Summary: Clear
Visibility: greater than 10 km
2017/10/17 11:00 LWSK 171100Z VRB02KT CAVOK 22/09 Q1027 NOSIG
 
LYNI - Nis, Yugoslavia
Distance from station: NNW 127km
Updated: 17/10/2017 14:00
Clear
Clear
 Wind from WNW
Wind: WNW 2 km/h
Temperature: 24°C
Dew Point: 11°C
Humidity: 44%
Barometer: 1026 hPa
Summary: Clear
Visibility: greater than 10 km
2017/10/17 11:00 LYNI 171100Z 29001KT CAVOK 24/11 Q1026 NOSIG
BKPR - Prishtina, Yugoslavia
Distance from station: W 141km
Updated: 17/10/2017 14:00
Clear
Clear
 Wind from varies
Wind: varies 4 km/h
Temperature: 21°C
Dew Point: 9°C
Humidity: 46%
Barometer: 1028 hPa
Summary: Clear
Visibility: greater than 10 km
2017/10/17 11:00 BKPR 171100Z VRB02KT CAVOK 21/09 Q1028 NOSIG